Flight Track Log - Related Links

Times and Time Zones

All times are in EDT time to prevent confusion due to time zone crossing. See the UAL1259 flight status page for this flight to view local times or setup timezone preferences in your user account.

Time Position Orientation Groundspeed Altitude Reporting Facility
EDT Latitude Longitude Course Direction KTS MPH feet Rate Location/Type
Mon 09:52:47 AM 39.1520 -76.7420 315° West 263 303 4,100  Level FlightAware ADS-B
Mon 09:53:17 AM 39.1810 -76.7800 315° West 278 320 5,600 3,333 Climbing FlightAware ADS-B
Mon 09:53:32 AM 39.1880 -76.8040 291° West 273 314 6,600 3,300 Climbing FlightAware ADS-B
Mon 09:53:57 AM 39.1940 -76.8410 282° West 277 319 7,800 3,150 Climbing FlightAware ADS-B
Mon 09:54:12 AM 39.1980 -76.8630 283° West 278 320 8,700 2,933 Climbing FlightAware ADS-B
Mon 09:54:42 AM 39.2100 -76.9170 286° West 289 333 10,000 1,800 Climbing FlightAware ADS-B
Mon 09:55:12 AM 39.2140 -76.9720 275° West 325 374 10,500 1,800 Climbing FlightAware ADS-B
Mon 09:56:02 AM 39.2140 -77.0750 270° West 352 405 12,400 2,475 Climbing FlightAware ADS-B
Mon 09:56:32 AM 39.2090 -77.1350 264° West 352 405 13,800 2,800 Climbing FlightAware ADS-B
Mon 09:56:47 AM 39.1970 -77.1630 241° Southwest 350 403 14,500 2,600 Climbing FlightAware ADS-B
Mon 09:57:02 AM 39.1790 -77.1840 222° Southwest 354 407 15,100 2,509 Climbing FlightAware ADS-B
Mon 09:57:42 AM 39.1270 -77.2290 214° Southwest 356 410 16,800 2,475 Climbing FlightAware ADS-B
Mon 09:58:22 AM 39.0710 -77.2760 213° Southwest 365 420 18,400 2,047 Climbing FlightAware ADS-B
Mon 09:59:07 AM 39.0100 -77.3370 218° Southwest 374 430 19,700 1,745 Climbing FlightAware ADS-B
Mon 09:59:17 AM 39.0040 -77.3510 241° Southwest 377 434 20,000 2,160 Climbing FlightAware ADS-B
Mon 09:59:32 AM 38.9930 -77.3930 251° West 384 442 20,600 1,800 Climbing FlightAware ADS-B
Mon 10:00:17 AM 38.9770 -77.4890 258° West 393 452 21,800 1,765 Climbing FlightAware ADS-B
Mon 10:00:57 AM 38.9590 -77.5890 257° West 402 463 23,100 1,835 Climbing FlightAware ADS-B
Mon 10:01:42 AM 38.9450 -77.6890 260° West 409 471 24,400 1,624 Climbing FlightAware ADS-B
Mon 10:02:22 AM 38.9460 -77.7890 271° West 417 480 25,400 1,500 Climbing FlightAware ADS-B
Mon 10:03:02 AM 38.9500 -77.8870 273° West 421 484 26,400 1,482 Climbing FlightAware ADS-B
Mon 10:03:47 AM 38.9530 -77.9960 272° West 427 491 27,500 1,341 Climbing FlightAware ADS-B
Mon 10:04:27 AM 38.9570 -78.1070 273° West 431 496 28,300 1,350 Climbing FlightAware ADS-B
Mon 10:05:07 AM 38.9600 -78.2090 272° West 430 495 29,300 1,765 Climbing FlightAware ADS-B
Mon 10:05:52 AM 38.9640 -78.3190 273° West 415 478 30,800 1,765 Climbing FlightAware ADS-B
Mon 10:06:32 AM 38.9670 -78.4130 272° West 412 474 31,800 1,341 Climbing FlightAware ADS-B
Mon 10:07:17 AM 38.9700 -78.5230 272° West 410 472 32,700 1,271 Climbing FlightAware ADS-B
Mon 10:07:57 AM 38.9730 -78.6240 272° West 405 466 33,600 975 Climbing FlightAware ADS-B
Mon 10:08:37 AM 38.9760 -78.7210 272° West 402 463 34,000 282 Climbing FlightAware ADS-B
Mon 10:09:22 AM 38.9780 -78.8290 271° West 401 461 34,000  Level FlightAware ADS-B
Mon 10:10:02 AM 38.9810 -78.9140 273° West 400 460 34,000  Level FlightAware ADS-B
Mon 10:10:47 AM 38.9840 -79.0310 272° West 401 461 34,000  Level FlightAware ADS-B
Mon 10:11:27 AM 38.9860 -79.1220 272° West 403 464 34,000  Level FlightAware ADS-B
Mon 10:12:07 AM 38.9880 -79.2190 272° West 405 466 34,000  Level FlightAware ADS-B
Mon 10:12:52 AM 38.9910 -79.3260 272° West 408 470 34,000  Level FlightAware ADS-B
Mon 10:13:37 AM 38.9930 -79.4340 271° West 410 472 34,000  Level FlightAware ADS-B
Mon 10:14:17 AM 38.9950 -79.5340 272° West 411 473 34,000  Level FlightAware ADS-B
Mon 10:14:57 AM 38.9970 -79.6320 272° West 412 474 34,000  Level FlightAware ADS-B
Mon 10:15:37 AM 38.9990 -79.7440 271° West 413 475 34,000  Level FlightAware ADS-B
Mon 10:16:22 AM 39.0010 -79.8560 271° West 414 476 34,000  Level FlightAware ADS-B
Mon 10:17:17 AM 39.0030 -79.9880 271° West 415 478 34,000  Level FlightAware ADS-B
Mon 10:17:57 AM 39.0050 -80.0880 272° West 414 476 34,000  Level FlightAware ADS-B
Mon 10:18:42 AM 39.0070 -80.1990 271° West 411 473 34,000  Level FlightAware ADS-B
Mon 10:19:22 AM 39.0080 -80.2980 271° West 411 473 34,000  Level FlightAware ADS-B
Mon 10:20:07 AM 39.0090 -80.4030 271° West 410 472 34,000  Level FlightAware ADS-B
Mon 10:20:47 AM 39.0140 -80.5010 274° West 413 475 34,000  Level FlightAware ADS-B
Mon 10:21:02 AM 39.0260 -80.5380 293° West 420 483 34,000  Level FlightAware ADS-B
Mon 10:21:42 AM 39.0640 -80.6270 299° West 422 486 34,000  Level FlightAware ADS-B
Mon 10:22:27 AM 39.1050 -80.7200 300° West 421 484 34,000  Level FlightAware ADS-B
Mon 10:23:12 AM 39.1500 -80.8220 300° West 422 486 34,000  Level FlightAware ADS-B
Mon 10:23:47 AM 39.1840 -80.8970 300° West 422 486 34,000  Level FlightAware ADS-B
Mon 10:24:32 AM 39.2280 -80.9950 300° West 421 484 34,000  Level FlightAware ADS-B
Mon 10:25:17 AM 39.2710 -81.0910 300° West 421 484 34,000  Level FlightAware ADS-B
Mon 10:25:57 AM 39.3100 -81.1770 300° West 422 486 34,000  Level FlightAware ADS-B
Mon 10:26:42 AM 39.3550 -81.2790 300° West 424 488 34,000  Level FlightAware ADS-B
Mon 10:27:22 AM 39.3920 -81.3640 299° West 425 489 34,000  Level FlightAware ADS-B
Mon 10:28:02 AM 39.4320 -81.4560 299° West 427 491 34,000  Level FlightAware ADS-B
Mon 10:28:47 AM 39.4750 -81.5540 300° West 429 494 34,000  Level FlightAware ADS-B
Mon 10:29:27 AM 39.5140 -81.6430 300° West 429 494 34,000  Level FlightAware ADS-B
Mon 10:30:12 AM 39.5590 -81.7450 300° West 429 494 34,000 -71 Level FlightAware ADS-B
Mon 10:30:52 AM 39.5980 -81.8350 299° West 428 493 33,900 -600 Descending FlightAware ADS-B
Mon 10:31:32 AM 39.6370 -81.9230 300° West 425 489 33,200 -635 Descending FlightAware ADS-B
Mon 10:32:17 AM 39.6770 -82.0180 299° West 424 488 33,000 -141 Descending FlightAware ADS-B
Mon 10:32:57 AM 39.7170 -82.1090 300° West 423 487 33,000  Level FlightAware ADS-B
Mon 10:33:42 AM 39.7610 -82.2120 299° West 422 486 33,000  Level FlightAware ADS-B
Mon 10:34:17 AM 39.7920 -82.2840 299° West 421 484 33,000  Level FlightAware ADS-B
Mon 10:35:02 AM 39.8360 -82.3870 299° West 419 482 33,000  Level FlightAware ADS-B
Mon 10:35:42 AM 39.8740 -82.4760 299° West 418 481 33,000  Level FlightAware ADS-B
Mon 10:36:27 AM 39.9160 -82.5740 299° West 417 480 33,000  Level FlightAware ADS-B
Mon 10:37:07 AM 39.9530 -82.6620 299° West 417 480 33,000  Level FlightAware ADS-B
Mon 10:37:52 AM 39.9950 -82.7620 299° West 417 480 33,000  Level FlightAware ADS-B
Mon 10:38:32 AM 40.0320 -82.8480 299° West 418 481 33,000 -353 Level FlightAware ADS-B
Mon 10:39:17 AM 40.0720 -82.9430 299° West 420 483 32,500 -706 Descending FlightAware ADS-B
Mon 10:39:57 AM 40.1110 -83.0370 299° West 421 484 32,000 -353 Descending FlightAware ADS-B
Mon 10:40:42 AM 40.1530 -83.1370 299° West 419 482 32,000  Level FlightAware ADS-B
Mon 10:41:22 AM 40.1910 -83.2290 298° West 417 480 32,000  Level FlightAware ADS-B
Mon 10:42:02 AM 40.2270 -83.3150 299° West 417 480 32,000  Level FlightAware ADS-B
Mon 10:42:42 AM 40.2630 -83.4030 298° West 417 480 32,000  Level FlightAware ADS-B
Mon 10:43:27 AM 40.3050 -83.5040 299° West 415 478 32,000  Level FlightAware ADS-B
Mon 10:44:07 AM 40.3410 -83.5930 298° West 415 478 32,000  Level FlightAware ADS-B
Mon 10:44:52 AM 40.3830 -83.6940 299° West 413 475 32,000  Level FlightAware ADS-B
Mon 10:45:32 AM 40.4170 -83.7790 298° West 413 475 32,000  Level FlightAware ADS-B
Mon 10:46:12 AM 40.4540 -83.8680 299° West 413 475 32,000  Level FlightAware ADS-B
Mon 10:46:57 AM 40.4950 -83.9690 298° West 413 475 32,000  Level FlightAware ADS-B
Mon 10:47:37 AM 40.5310 -84.0580 298° West 412 474 32,000  Level FlightAware ADS-B
Mon 10:48:22 AM 40.5700 -84.1550 298° West 412 474 32,000  Level FlightAware ADS-B
Mon 10:49:02 AM 40.6050 -84.2420 298° West 412 474 32,000  Level FlightAware ADS-B
Mon 10:49:47 AM 40.6470 -84.3470 298° West 411 473 32,000  Level FlightAware ADS-B
Mon 10:50:27 AM 40.6820 -84.4350 298° West 412 474 32,000  Level FlightAware ADS-B
Mon 10:51:07 AM 40.7170 -84.5220 298° West 412 474 32,000  Level FlightAware ADS-B
Mon 10:51:52 AM 40.7560 -84.6200 298° West 413 475 32,000  Level FlightAware ADS-B
Mon 10:52:32 AM 40.7890 -84.7050 297° West 412 474 32,000  Level FlightAware ADS-B
Mon 10:53:17 AM 40.8330 -84.8110 299° West 414 476 32,000  Level FlightAware ADS-B
Mon 10:53:57 AM 40.8690 -84.8950 300° West 413 475 32,000  Level FlightAware ADS-B
Mon 10:54:37 AM 40.9070 -84.9830 300° West 414 476 32,000  Level FlightAware ADS-B
Mon 10:55:22 AM 40.9490 -85.0850 299° West 412 474 32,000  Level FlightAware ADS-B
Mon 10:56:02 AM 40.9860 -85.1730 299° West 412 474 32,000  Level FlightAware ADS-B
Mon 10:56:42 AM 41.0220 -85.2580 299° West 412 474 32,000  Level FlightAware ADS-B
Mon 10:57:27 AM 41.0630 -85.3570 299° West 411 473 32,000 -212 Level FlightAware ADS-B
Mon 10:58:07 AM 41.0970 -85.4390 299° West 409 471 31,700 -1,482 Descending FlightAware ADS-B
Mon 10:58:52 AM 41.1420 -85.5470 299° West 402 463 29,900 -2,259 Descending FlightAware ADS-B
Mon 10:59:32 AM 41.1760 -85.6310 298° West 396 456 28,500 -2,100 Descending FlightAware ADS-B
Mon 11:00:12 AM 41.2130 -85.7190 299° West 394 453 27,100 -2,047 Descending FlightAware ADS-B
Mon 11:00:57 AM 41.2510 -85.8110 299° West 393 452 25,600 -1,482 Descending FlightAware ADS-B
Mon 11:01:37 AM 41.2790 -85.9010 293° West 385 443 25,000 -424 Descending FlightAware ADS-B
Mon 11:02:22 AM 41.3030 -86.0000 288° West 386 444 25,000  Level FlightAware ADS-B
Mon 11:03:02 AM 41.3220 -86.0850 287° West 387 445 25,000  Level FlightAware ADS-B
Mon 11:03:37 AM 41.3410 -86.1660 287° West 388 447 25,000  Level FlightAware ADS-B
Mon 11:04:27 AM 41.3680 -86.2840 287° West 390 449 25,000 -141 Level FlightAware ADS-B
Mon 11:05:02 AM 41.3860 -86.3640 287° West 387 445 24,800 -1,271 Descending FlightAware ADS-B
Mon 11:05:52 AM 41.4120 -86.4790 287° West 375 432 23,200 -1,933 Descending FlightAware ADS-B
Mon 11:06:32 AM 41.4310 -86.5660 286° West 367 422 21,900 -1,835 Descending FlightAware ADS-B
Mon 11:07:17 AM 41.4530 -86.6620 287° West 357 411 20,600 -1,765 Descending FlightAware ADS-B
Mon 11:07:57 AM 41.4720 -86.7450 287° West 357 411 19,400 -1,840 Descending FlightAware ADS-B
Mon 11:08:32 AM 41.4880 -86.8200 286° West 358 412 18,300 -1,976 Descending FlightAware ADS-B
Mon 11:09:22 AM 41.5130 -86.9310 287° West 360 414 16,600 -2,000 Descending FlightAware ADS-B
Mon 11:10:02 AM 41.5310 -87.0110 287° West 356 410 15,300 -1,976 Descending FlightAware ADS-B
Mon 11:10:47 AM 41.5510 -87.1030 286° West 350 403 13,800 -1,976 Descending FlightAware ADS-B
Mon 11:11:27 AM 41.5680 -87.1820 286° West 345 397 12,500 -1,482 Descending FlightAware ADS-B
Mon 11:12:12 AM 41.5990 -87.2720 295° West 330 380 11,700 -988 Descending FlightAware ADS-B
Mon 11:12:52 AM 41.6370 -87.3350 309° West 329 379 11,100 -1,341 Descending FlightAware ADS-B
Mon 11:13:37 AM 41.6790 -87.4040 309° West 328 377 9,800 -1,200 Descending FlightAware ADS-B
Mon 11:14:02 AM 41.7040 -87.4450 309° West 320 368 9,700 -150 Descending FlightAware ADS-B
Mon 11:14:17 AM 41.7170 -87.4660 310° West 320 368 9,700  Level FlightAware ADS-B
Mon 11:14:47 AM 41.7450 -87.5130 309° West 318 366 9,700  Level FlightAware ADS-B
Mon 11:15:12 AM 41.7680 -87.5510 309° West 310 357 9,700  Level FlightAware ADS-B
Mon 11:15:42 AM 41.7940 -87.5950 308° West 290 334 9,700  Level FlightAware ADS-B
Mon 11:16:07 AM 41.8100 -87.6330 299° West 288 331 9,700  Level FlightAware ADS-B
Mon 11:16:37 AM 41.8300 -87.6820 299° West 286 329 9,700  Level FlightAware ADS-B
Mon 11:17:07 AM 41.8500 -87.7290 300° West 284 327 9,700 -545 Level FlightAware ADS-B
Mon 11:17:32 AM 41.8620 -87.7680 292° West 284 327 9,200 -1,418 Descending FlightAware ADS-B
Mon 11:18:02 AM 41.8750 -87.8180 289° West 286 329 8,400 -1,400 Descending FlightAware ADS-B
Mon 11:18:32 AM 41.8880 -87.8650 290° West 284 327 7,800 -764 Descending FlightAware ADS-B
Mon 11:18:57 AM 41.8990 -87.9100 288° West 280 322 7,700 -109 Descending FlightAware ADS-B
Mon 11:19:27 AM 41.9120 -87.9600 289° West 280 322 7,700  Level FlightAware ADS-B
Mon 11:19:52 AM 41.9230 -87.9990 291° West 280 322 7,700  Level FlightAware ADS-B
Mon 11:20:07 AM 41.9330 -88.0200 303° West 282 325 7,700  Level FlightAware ADS-B
Mon 11:20:37 AM 41.9640 -88.0570 318° Northwest 285 328 7,700 -267 Level FlightAware ADS-B
Mon 11:20:52 AM 41.9780 -88.0730 320° Northwest 285 328 7,500 -1,350 Descending FlightAware ADS-B
Mon 11:21:17 AM 42.0040 -88.1040 318° Northwest 286 329 6,800 -1,309 Descending FlightAware ADS-B
Mon 11:21:47 AM 42.0320 -88.1360 320° Northwest 280 322 6,300 -1,067 Descending FlightAware ADS-B
Mon 11:22:02 AM 42.0470 -88.1550 317° Northwest 277 319 6,000 -1,050 Descending FlightAware ADS-B
Mon 11:22:27 AM 42.0770 -88.1730 336° Northwest 265 305 5,600 -1,200 Descending FlightAware ADS-B
Mon 11:22:52 AM 42.1020 -88.1580 24° Northeast 250 288 5,000 -1,467 Descending FlightAware ADS-B
Mon 11:23:12 AM 42.1150 -88.1360 51° Northeast 236 272 4,500 -1,800 Descending FlightAware ADS-B
Mon 11:23:22 AM 42.1180 -88.1220 74° East 230 265 4,100 -1,800 Descending FlightAware ADS-B
Mon 11:23:52 AM 42.1080 -88.0830 109° East 209 241 3,300 -1,309 Descending FlightAware ADS-B
Mon 11:24:17 AM 42.0980 -88.0550 116° Southeast 189 217 2,900 -873 Descending FlightAware ADS-B
Mon 11:24:47 AM 42.0790 -88.0330 139° Southeast 183 211 2,500 -800 Descending FlightAware ADS-B
Mon 11:25:17 AM 42.0590 -88.0110 141° Southeast 177 204 2,100 -764 Descending FlightAware ADS-B
Mon 11:25:42 AM 42.0450 -87.9940 138° Southeast 161 185 1,800 -873 Descending FlightAware ADS-B
Mon 11:26:12 AM 42.0270 -87.9750 142° Southeast 150 173 1,300 -873 Descending FlightAware ADS-B
Mon 11:26:37 AM 42.0150 -87.9610 139° Southeast 150 173 1,000 -764 Descending FlightAware ADS-B
Mon 11:27:07 AM 41.9990 -87.9430 140° Southeast 150 173 600 -800 Descending FlightAware ADS-B

Login

Don't have an account? Register now (free) for customized features, flight alerts, and more!